KEUF

Weedon Field Airport

Eufaula, Alabama, USA
METAR KEUF 230158Z AUTO 00000KT 10SM BKN070 OVC090 24/22 A3003 RMK AO2 SLP166 T02440222
Observed Flight Rules
May-23 @ 01:58 UTC (58 minutes ago) Visual Flight Rules
Visibility Clouds
10 miles
  • Broken at 7,000' AGL
  • Overcast at 9,000' AGL
Temperatures Readings
Current 24°C / 75°F
Dewpoint 22°C / 72°F
Humidity 89%
Altimeter 30.03" Hg
Pressure 1016.6 hPa
Elevation 87
METAR KEUF 230158Z AUTO 00000KT 10SM BKN070 OVC090 24/22 A3003 RMK AO2 SLP166 T02440222
Observed Flight Rules
May-23 @ 01:58 UTC
(58 minutes ago)
VFR
Clouds
  • Broken at 7,000' AGL
  • Overcast at 9,000' AGL
Temperature Dewpoint
24°C / 75°F 22°C / 72°F
Humidity Altimeter Pressure
89% 30.03" Hg 1016.6 hPa